X  Schlie├čen METAR Luftfahrt Wetterdaten     EHKD De Kooy Airport
Temperatur
15°C Temperatur
14°C Taupunkt
94% Feuchtigkeit



Wind
3 KM/S
2 MPS
1 M/S
2 KTS



210°
SSW
Aktuelle Wetterlage

Klar Klar
Luftdruck 1010.84 (hPa) - 29.85 (inHg)
Sichtweite 6 (Meile) - 9.7 (Km)
Flughafen
Flughafen Code EHKD

Position : De Kooy Airport
Entfernung: 34 (Km)

Metar:
EHKD 150525Z AUTO 21002KT 9999 NCD 15/14 Q1011 BLU NOSIG

Zeit: 15-07-2024 07:25 CEST